Time;durP1;ratioP1;P1;durP2;ratioP2;P2;SDS_P1;SDS_P2;PMS_P1;PMS_P2;Temp;Humidity;BMP_temperature;BMP_pressure;BME280_temperature;BME280_humidity;BME280_pressure;Samples;Min_cycle;Max_cycle;Signal;HPM_P1;HPM_P2
2021/08/29 00:02:14;;;;;;;;;;;14.90;94.80;;;;;;5020002;28;19918;-58
2021/08/29 00:04:39;;;;;;;;;;;15.50;94.90;;;;;;5035618;28;19923;-58
2021/08/29 00:07:05;;;;;;;;;;;14.80;94.80;;;;;;5036143;28;19917;-58
2021/08/29 00:09:31;;;;;;;;;;;14.80;94.80;;;;;;5036346;28;19946;-59
2021/08/29 00:11:56;;;;;;;;;;;14.80;94.70;;;;;;5053615;28;19970;-58
2021/08/29 00:14:22;;;;;;;;;;;14.80;94.90;;;;;;5019628;28;20428;-58
2021/08/29 00:16:47;;;;;;;;;;;14.80;94.80;;;;;;5053411;28;19917;-58
2021/08/29 00:19:15;;;;;;;;;;;14.80;94.90;;;;;;5019616;28;19928;-57
2021/08/29 00:21:41;;;;;;;;;;;14.80;94.90;;;;;;5019402;28;20353;-58
2021/08/29 00:24:06;;;;;;;;;;;14.80;94.90;;;;;;5035465;28;20015;-58
2021/08/29 00:26:32;;;;;;;;;;;14.80;95.00;;;;;;5035856;28;19917;-58
2021/08/29 00:28:58;;;;;;;;;;;14.80;95.00;;;;;;5034685;28;19917;-58
2021/08/29 00:31:24;;;;;;;;;;;14.80;94.90;;;;;;5053592;28;19924;-57
2021/08/29 00:33:49;;;;;;;;;;;17.40;95.50;;;;;;5001230;28;19921;-57
2021/08/29 00:36:15;;;;;;;;;;;14.80;94.90;;;;;;5018380;28;19916;-58
2021/08/29 00:38:40;;;;;;;;;;;14.80;95.00;;;;;;5018087;28;20011;-58
2021/08/29 00:41:10;;;;;;;;;;;18.40;95.90;;;;;;5019064;28;19940;-58
2021/08/29 00:43:36;;;;;;;;;;;14.80;94.90;;;;;;5034868;28;20040;-57
2021/08/29 00:46:01;;;;;;;;;;;14.80;95.00;;;;;;5035688;28;19996;-57
2021/08/29 00:48:27;;;;;;;;;;;14.80;95.00;;;;;;5052953;28;19917;-58
2021/08/29 00:50:53;;;;;;;;;;;14.80;95.00;;;;;;5034650;28;20339;-58
2021/08/29 00:53:19;;;;;;;;;;;14.80;94.90;;;;;;5018174;28;19916;-58
2021/08/29 00:55:46;;;;;;;;;;;14.70;94.90;;;;;;5018280;28;19912;-57
2021/08/29 00:58:12;;;;;;;;;;;14.80;95.00;;;;;;5018444;28;19917;-58
2021/08/29 01:00:41;;;;;;;;;;;14.80;95.10;;;;;;5018591;28;19924;-58
2021/08/29 01:03:15;;;;;;;;;;;14.80;95.00;;;;;;5017826;28;19970;-58
2021/08/29 01:05:57;;;;;;;;;;;14.80;94.90;;;;;;5022977;28;19988;-58
2021/08/29 01:08:43;;;;;;;;;;;14.80;95.00;;;;;;4969762;28;20577;-58
2021/08/29 01:11:14;;;;;;;;;;;14.80;95.00;;;;;;4994788;28;20026;-58
2021/08/29 01:13:46;;;;;;;;;;;16.60;95.60;;;;;;5007152;28;19918;-58
2021/08/29 01:16:17;;;;;;;;;;;14.70;94.90;;;;;;4977666;28;20389;-57
2021/08/29 01:18:56;;;;;;;;;;;14.70;95.00;;;;;;5006674;28;19917;-58
2021/08/29 01:21:26;;;;;;;;;;;14.70;95.00;;;;;;4997845;28;20004;-58
2021/08/29 01:23:56;;;;;;;;;;;14.50;94.90;;;;;;4997538;28;20000;-58
2021/08/29 01:26:32;;;;;;;;;;;14.70;95.00;;;;;;4980449;28;20288;-58
2021/08/29 01:29:06;;;;;;;;;;;14.70;95.10;;;;;;4997475;28;19924;-58
2021/08/29 01:31:34;;;;;;;;;;;14.70;95.10;;;;;;4997784;28;19923;-57
2021/08/29 01:34:02;;;;;;;;;;;14.70;95.10;;;;;;5031735;28;19928;-58
2021/08/29 01:36:30;;;;;;;;;;;15.50;95.30;;;;;;4997100;28;20008;-58
2021/08/29 01:38:56;;;;;;;;;;;14.70;95.00;;;;;;4997941;28;19917;-58
2021/08/29 01:41:23;;;;;;;;;;;14.70;95.00;;;;;;5031644;28;19917;-58
2021/08/29 01:43:50;;;;;;;;;;;14.80;95.20;;;;;;4997583;28;20047;-58
2021/08/29 01:46:18;;;;;;;;;;;16.80;95.70;;;;;;5012650;28;19956;-58
2021/08/29 01:49:04;;;;;;;;;;;14.70;95.20;;;;;;5003149;28;20020;-58
2021/08/29 01:51:30;;;;;;;;;;;14.60;95.20;;;;;;4982158;28;19921;-57
2021/08/29 01:54:05;;;;;;;;;;;14.70;95.30;;;;;;5010276;28;19918;-58
2021/08/29 01:56:58;;;;;;;;;;;14.60;95.20;;;;;;4993472;28;19921;-58
2021/08/29 01:59:26;;;;;;;;;;;14.70;95.20;;;;;;4980543;28;19996;-58
2021/08/29 02:01:52;;;;;;;;;;;14.70;95.50;;;;;;4982526;28;19922;-57
2021/08/29 02:04:21;;;;;;;;;;;14.70;95.20;;;;;;4977441;28;19929;-58
2021/08/29 02:06:49;;;;;;;;;;;14.70;95.30;;;;;;4977330;28;19918;-58
2021/08/29 02:09:17;;;;;;;;;;;14.70;95.30;;;;;;4977363;28;19925;-58
2021/08/29 02:11:51;;;;;;;;;;;15.30;95.40;;;;;;4994555;28;19944;-58
2021/08/29 02:14:25;;;;;;;;;;;14.70;95.20;;;;;;4993622;28;19918;-58
2021/08/29 02:16:51;;;;;;;;;;;14.70;95.20;;;;;;4976132;28;19922;-58
2021/08/29 02:19:21;;;;;;;;;;;18.10;96.10;;;;;;4994009;28;19968;-58
2021/08/29 02:21:50;;;;;;;;;;;14.60;95.20;;;;;;4977459;28;20309;-58
2021/08/29 02:24:16;;;;;;;;;;;14.60;95.30;;;;;;4994604;28;19918;-58
2021/08/29 02:26:42;;;;;;;;;;;14.60;95.30;;;;;;4992300;28;20226;-58
2021/08/29 02:29:14;;;;;;;;;;;14.60;95.40;;;;;;4993990;28;20404;-58
2021/08/29 02:31:40;;;;;;;;;;;14.60;95.30;;;;;;4993982;28;19928;-58
2021/08/29 02:34:06;;;;;;;;;;;14.60;95.30;;;;;;4994176;28;19914;-58
2021/08/29 02:36:32;;;;;;;;;;;15.80;95.80;;;;;;4993274;28;19917;-58
2021/08/29 02:38:59;;;;;;;;;;;14.60;95.40;;;;;;5010648;28;20004;-58
2021/08/29 02:41:26;;;;;;;;;;;14.60;95.40;;;;;;4993631;28;20075;-57
2021/08/29 02:43:56;;;;;;;;;;;15.50;95.60;;;;;;4979295;28;19928;-62
2021/08/29 02:46:22;;;;;;;;;;;14.60;95.40;;;;;;4994368;28;20063;-62
2021/08/29 02:48:48;;;;;;;;;;;14.60;95.40;;;;;;4993924;28;20015;-62
2021/08/29 02:51:15;;;;;;;;;;;14.60;95.50;;;;;;4977696;28;19930;-62
2021/08/29 02:53:44;;;;;;;;;;;14.60;95.50;;;;;;4994236;28;20340;-62
2021/08/29 02:56:10;;;;;;;;;;;14.60;95.50;;;;;;4993655;28;19929;-62
2021/08/29 02:58:38;;;;;;;;;;;14.60;95.40;;;;;;4993127;28;20000;-62
2021/08/29 03:01:15;;;;;;;;;;;14.60;95.40;;;;;;4994203;28;19917;-61
2021/08/29 03:04:00;;;;;;;;;;;14.60;95.40;;;;;;5011456;28;19941;-62
2021/08/29 03:06:26;;;;;;;;;;;14.60;95.50;;;;;;4978189;28;19918;-62
2021/08/29 03:08:52;;;;;;;;;;;14.60;95.60;;;;;;4993449;28;20294;-62
2021/08/29 03:11:19;;;;;;;;;;;14.60;95.50;;;;;;4993968;28;19933;-62
2021/08/29 03:13:45;;;;;;;;;;;14.60;95.60;;;;;;4993884;28;19924;-62
2021/08/29 03:16:11;;;;;;;;;;;14.60;95.60;;;;;;5011086;28;19922;-62
2021/08/29 03:18:48;;;;;;;;;;;14.60;95.60;;;;;;4993657;28;19917;-62
2021/08/29 03:21:34;;;;;;;;;;;14.60;95.60;;;;;;5010654;28;19921;-63
2021/08/29 03:24:00;;;;;;;;;;;14.60;95.60;;;;;;4993968;28;20348;-62
2021/08/29 03:26:26;;;;;;;;;;;14.60;95.60;;;;;;4993451;28;19949;-62
2021/08/29 03:28:55;;;;;;;;;;;14.60;95.60;;;;;;4993516;28;19971;-62
2021/08/29 03:31:21;;;;;;;;;;;14.60;95.60;;;;;;4993955;28;19917;-63
2021/08/29 03:33:47;;;;;;;;;;;14.60;95.60;;;;;;4993418;28;19917;-62
2021/08/29 03:36:18;;;;;;;;;;;14.60;95.70;;;;;;4993905;28;19914;-62
2021/08/29 03:38:43;;;;;;;;;;;14.60;95.60;;;;;;4977102;28;19968;-61
2021/08/29 03:41:09;;;;;;;;;;;14.60;95.60;;;;;;4993752;28;19913;-62
2021/08/29 03:43:35;;;;;;;;;;;14.60;95.70;;;;;;5011161;28;19921;-62
2021/08/29 03:46:02;;;;;;;;;;;14.60;95.70;;;;;;4993624;28;19917;-62
2021/08/29 03:48:29;;;;;;;;;;;14.60;95.70;;;;;;4977471;28;19925;-62
2021/08/29 03:50:56;;;;;;;;;;;14.60;95.70;;;;;;4978471;28;20256;-62
2021/08/29 03:53:23;;;;;;;;;;;14.60;95.70;;;;;;5009660;28;20428;-62
2021/08/29 03:55:49;;;;;;;;;;;14.70;95.70;;;;;;5011379;28;19937;-62
2021/08/29 03:58:15;;;;;;;;;;;14.70;95.70;;;;;;4993022;28;19917;-62
2021/08/29 04:00:46;;;;;;;;;;;14.70;95.70;;;;;;4993897;28;19921;-62
2021/08/29 04:03:12;;;;;;;;;;;14.70;95.70;;;;;;4993533;28;20124;-62
2021/08/29 04:06:05;;;;;;;;;;;14.70;95.70;;;;;;4993179;28;19924;-62
2021/08/29 04:08:34;;;;;;;;;;;14.70;95.70;;;;;;4994923;28;19924;-62
2021/08/29 04:11:00;;;;;;;;;;;14.70;95.70;;;;;;4996532;28;20136;-62
2021/08/29 04:13:29;;;;;;;;;;;14.70;95.60;;;;;;4996967;28;20007;-62
2021/08/29 04:16:12;;;;;;;;;;;14.70;95.70;;;;;;4996665;28;19914;-62
2021/08/29 04:18:42;;;;;;;;;;;14.70;95.70;;;;;;4996775;28;20344;-62
2021/08/29 04:21:10;;;;;;;;;;;14.60;95.70;;;;;;4997075;28;20463;-62
2021/08/29 04:23:36;;;;;;;;;;;14.70;95.80;;;;;;4996287;28;19913;-62
2021/08/29 04:26:04;;;;;;;;;;;14.70;95.70;;;;;;4996763;28;19921;-62
2021/08/29 04:28:30;;;;;;;;;;;14.70;95.70;;;;;;4996140;28;19921;-61
2021/08/29 04:30:58;;;;;;;;;;;14.70;95.70;;;;;;4996628;28;19941;-62
2021/08/29 04:33:26;;;;;;;;;;;14.60;95.70;;;;;;4996138;28;22250;-62
2021/08/29 04:36:21;;;;;;;;;;;14.60;95.70;;;;;;4992119;28;20376;-62
2021/08/29 04:38:47;;;;;;;;;;;14.60;95.70;;;;;;4980063;28;20001;-62
2021/08/29 04:41:13;;;;;;;;;;;14.60;95.70;;;;;;4996259;28;19917;-61
2021/08/29 04:43:38;;;;;;;;;;;14.60;95.80;;;;;;4996172;28;19928;-62
2021/08/29 04:46:05;;;;;;;;;;;14.70;95.80;;;;;;4996410;28;19922;-62
2021/08/29 04:48:31;;;;;;;;;;;14.60;95.80;;;;;;5012045;28;20302;-62
2021/08/29 04:50:57;;;;;;;;;;;14.70;95.90;;;;;;4996225;28;19996;-62
2021/08/29 04:53:25;;;;;;;;;;;14.70;95.90;;;;;;4996319;28;19967;-62
2021/08/29 04:55:51;;;;;;;;;;;14.70;95.80;;;;;;5013583;28;20270;-62
2021/08/29 04:58:16;;;;;;;;;;;14.70;95.90;;;;;;4995889;28;20328;-62
2021/08/29 05:00:43;;;;;;;;;;;14.70;95.90;;;;;;5011913;28;19920;-62
2021/08/29 05:03:09;;;;;;;;;;;14.70;95.80;;;;;;4995998;28;19917;-62
2021/08/29 05:05:36;;;;;;;;;;;14.70;95.90;;;;;;4996103;28;19918;-62
2021/08/29 05:08:02;;;;;;;;;;;14.70;95.90;;;;;;4995378;28;19917;-62
2021/08/29 05:10:27;;;;;;;;;;;14.70;95.90;;;;;;4995965;28;20005;-62
2021/08/29 05:13:06;;;;;;;;;;;14.70;96.00;;;;;;4995495;28;19963;-62
2021/08/29 05:15:32;;;;;;;;;;;14.80;96.10;;;;;;4995893;28;19925;-62
2021/08/29 05:17:58;;;;;;;;;;;14.80;96.10;;;;;;4995604;28;19918;-63
2021/08/29 05:20:25;;;;;;;;;;;14.80;96.10;;;;;;4994942;28;19957;-62
2021/08/29 05:23:09;;;;;;;;;;;14.90;96.00;;;;;;5012537;28;19925;-62
2021/08/29 05:25:53;;;;;;;;;;;14.90;96.00;;;;;;5012986;28;19971;-62
2021/08/29 05:28:19;;;;;;;;;;;14.90;96.00;;;;;;4995328;28;20400;-62
2021/08/29 05:30:45;;;;;;;;;;;14.90;96.00;;;;;;4995155;28;20366;-62
2021/08/29 05:33:12;;;;;;;;;;;15.10;96.10;;;;;;4979233;28;20052;-62
2021/08/29 05:35:39;;;;;;;;;;;15.00;96.00;;;;;;4995531;28;20366;-62
2021/08/29 05:38:04;;;;;;;;;;;15.00;96.10;;;;;;4978660;28;19921;-63
2021/08/29 05:40:47;;;;;;;;;;;15.10;96.10;;;;;;5013099;28;19918;-62
2021/08/29 05:43:36;;;;;;;;;;;15.10;96.10;;;;;;4998097;28;20347;-62
2021/08/29 05:46:01;;;;;;;;;;;15.20;96.20;;;;;;4995408;28;19924;-62
2021/08/29 05:48:27;;;;;;;;;;;15.20;96.10;;;;;;5012195;28;19913;-62
2021/08/29 05:50:52;;;;;;;;;;;15.30;96.00;;;;;;4995108;28;19925;-62
2021/08/29 05:53:18;;;;;;;;;;;15.30;96.00;;;;;;4979029;28;19922;-62
2021/08/29 05:55:45;;;;;;;;;;;15.30;96.10;;;;;;4994628;28;19921;-62
2021/08/29 05:58:11;;;;;;;;;;;15.30;96.10;;;;;;4978652;28;20282;-62
2021/08/29 06:00:41;;;;;;;;;;;15.30;96.10;;;;;;4994562;28;19968;-62
2021/08/29 06:03:07;;;;;;;;;;;15.40;96.00;;;;;;4994863;28;19921;-63
2021/08/29 06:05:33;;;;;;;;;;;15.30;95.90;;;;;;4978859;28;19921;-62
2021/08/29 06:08:07;;;;;;;;;;;15.30;95.90;;;;;;4994746;28;20409;-62
2021/08/29 06:10:33;;;;;;;;;;;15.30;96.00;;;;;;4994906;28;20005;-62
2021/08/29 06:12:59;;;;;;;;;;;15.30;96.00;;;;;;4978149;28;20432;-62
2021/08/29 06:15:26;;;;;;;;;;;15.30;96.00;;;;;;4978843;28;19944;-62
2021/08/29 06:17:51;;;;;;;;;;;15.40;96.20;;;;;;4994538;28;20334;-62
2021/08/29 06:20:17;;;;;;;;;;;15.40;96.10;;;;;;4994317;28;19961;-62
2021/08/29 06:22:43;;;;;;;;;;;15.50;96.20;;;;;;4978429;28;19924;-62
2021/08/29 06:25:31;;;;;;;;;;;15.50;96.20;;;;;;5011031;28;19924;-62
2021/08/29 06:28:23;;;;;;;;;;;15.60;96.20;;;;;;4995662;28;19924;-62
2021/08/29 06:31:18;;;;;;;;;;;15.60;96.00;;;;;;4975071;28;19929;-62
2021/08/29 06:34:02;;;;;;;;;;;15.70;96.10;;;;;;5012153;28;19924;-62
2021/08/29 06:36:32;;;;;;;;;;;15.70;96.10;;;;;;5011782;28;20289;-61
2021/08/29 06:38:58;;;;;;;;;;;15.70;96.20;;;;;;4994176;28;19917;-62
2021/08/29 06:41:24;;;;;;;;;;;15.70;95.90;;;;;;4994635;28;19920;-62
2021/08/29 06:43:50;;;;;;;;;;;15.70;95.80;;;;;;4993609;28;19925;-62
2021/08/29 06:46:35;;;;;;;;;;;15.70;95.80;;;;;;5011923;28;19924;-62
2021/08/29 06:49:33;;;;;;;;;;;15.60;95.90;;;;;;4988540;28;20285;-63
2021/08/29 06:52:24;;;;;;;;;;;15.60;95.90;;;;;;4982494;28;19917;-62
2021/08/29 06:55:16;;;;;;;;;;;15.60;96.00;;;;;;4975540;28;19924;-62
2021/08/29 06:57:50;;;;;;;;;;;15.70;96.10;;;;;;5011306;28;19918;-63
2021/08/29 07:00:16;;;;;;;;;;;15.70;96.00;;;;;;4994085;28;19925;-63
2021/08/29 07:02:44;;;;;;;;;;;15.70;96.10;;;;;;4993759;28;19941;-63
2021/08/29 07:05:10;;;;;;;;;;;15.80;96.20;;;;;;5011748;28;19937;-62
2021/08/29 07:07:45;;;;;;;;;;;15.80;96.10;;;;;;4993509;28;20290;-62
2021/08/29 07:10:31;;;;;;;;;;;15.90;96.10;;;;;;5011289;28;20274;-62
2021/08/29 07:13:15;;;;;;;;;;;15.90;96.10;;;;;;5014459;28;19924;-63
2021/08/29 07:15:41;;;;;;;;;;;15.90;96.10;;;;;;4996192;28;19925;-63
2021/08/29 07:18:07;;;;;;;;;;;15.90;96.10;;;;;;4977518;28;20297;-62
2021/08/29 07:21:08;;;;;;;;;;;16.00;95.90;;;;;;4969989;28;19972;-62
2021/08/29 07:24:03;;;;;;;;;;;16.00;96.00;;;;;;5010654;28;19924;-62
2021/08/29 07:26:47;;;;;;;;;;;16.00;96.30;;;;;;5009444;28;19928;-62
2021/08/29 07:29:51;;;;;;;;;;;16.20;96.30;;;;;;4956823;28;19972;-63
2021/08/29 07:32:43;;;;;;;;;;;16.30;96.40;;;;;;4952214;28;19929;-63
2021/08/29 07:35:09;;;;;;;;;;;16.50;96.30;;;;;;4977647;28;19922;-62
2021/08/29 07:37:34;;;;;;;;;;;16.60;96.10;;;;;;5009577;28;20271;-62
2021/08/29 07:40:01;;;;;;;;;;;16.60;95.90;;;;;;4975545;28;19925;-62
2021/08/29 07:42:28;;;;;;;;;;;16.60;95.70;;;;;;4992640;28;19956;-63
2021/08/29 07:44:53;;;;;;;;;;;16.60;95.70;;;;;;4996036;28;19964;-62
2021/08/29 07:47:25;;;;;;;;;;;16.60;95.90;;;;;;4995561;28;19940;-63
2021/08/29 07:49:50;;;;;;;;;;;16.70;95.90;;;;;;4997091;28;20385;-63
2021/08/29 07:52:16;;;;;;;;;;;16.70;95.80;;;;;;4996425;28;19976;-62
2021/08/29 07:55:00;;;;;;;;;;;16.70;95.70;;;;;;4999906;28;19933;-63
2021/08/29 07:57:45;;;;;;;;;;;16.70;95.70;;;;;;5014375;28;19924;-62
2021/08/29 08:00:15;;;;;;;;;;;16.70;95.70;;;;;;4997056;28;19927;-63
2021/08/29 08:02:47;;;;;;;;;;;16.70;95.40;;;;;;4981026;28;19925;-63
2021/08/29 08:05:35;;;;;;;;;;;16.70;95.50;;;;;;5014159;28;19971;-62
2021/08/29 08:08:19;;;;;;;;;;;16.60;95.60;;;;;;4999131;28;20025;-62
2021/08/29 08:11:03;;;;;;;;;;;16.60;95.60;;;;;;5013624;28;19928;-62
2021/08/29 08:13:31;;;;;;;;;;;16.70;95.80;;;;;;4995965;28;19922;-62
2021/08/29 08:16:01;;;;;;;;;;;16.80;95.90;;;;;;4996047;28;19917;-62
2021/08/29 08:18:27;;;;;;;;;;;16.90;95.90;;;;;;4995389;28;19918;-62
2021/08/29 08:20:53;;;;;;;;;;;17.00;95.80;;;;;;4994620;28;19924;-63
2021/08/29 08:23:39;;;;;;;;;;;17.10;95.80;;;;;;4988114;28;19918;-62
2021/08/29 08:26:23;;;;;;;;;;;17.20;95.60;;;;;;5013684;28;20397;-62
2021/08/29 08:29:07;;;;;;;;;;;17.30;95.60;;;;;;5010988;28;19929;-63
2021/08/29 08:31:52;;;;;;;;;;;17.30;95.50;;;;;;5011762;28;20038;-62
2021/08/29 08:34:48;;;;;;;;;;;17.40;95.60;;;;;;4983761;28;20386;-62
2021/08/29 08:37:49;;;;;;;;;;;17.50;95.60;;;;;;5001031;28;20007;-63
2021/08/29 08:40:40;;;;;;;;;;;17.70;95.70;;;;;;4996190;28;19964;-63
2021/08/29 08:43:17;;;;;;;;;;;17.80;95.60;;;;;;4996319;28;19971;-60
2021/08/29 08:46:03;;;;;;;;;;;17.90;95.20;;;;;;5013945;28;20023;-60
2021/08/29 08:48:49;;;;;;;;;;;17.80;94.90;;;;;;5013373;28;20405;-59
2021/08/29 08:51:36;;;;;;;;;;;17.70;94.70;;;;;;5012608;28;19983;-60
2021/08/29 08:54:21;;;;;;;;;;;17.60;94.60;;;;;;5011828;28;20384;-60
2021/08/29 08:57:06;;;;;;;;;;;17.50;94.70;;;;;;5012044;28;19972;-60
2021/08/29 08:59:33;;;;;;;;;;;17.60;95.00;;;;;;5013811;28;19964;-60
2021/08/29 09:02:21;;;;;;;;;;;17.60;95.10;;;;;;5012951;28;19925;-61
2021/08/29 09:05:05;;;;;;;;;;;17.80;95.60;;;;;;5013355;28;20416;-60
2021/08/29 09:07:31;;;;;;;;;;;18.00;95.60;;;;;;4995118;28;19956;-60
2021/08/29 09:09:57;;;;;;;;;;;18.20;95.60;;;;;;4995859;28;20404;-60
2021/08/29 09:12:22;;;;;;;;;;;18.50;95.40;;;;;;4995682;28;20301;-60
2021/08/29 09:14:49;;;;;;;;;;;18.60;95.10;;;;;;4995417;28;19917;-60
2021/08/29 09:17:25;;;;;;;;;;;18.70;94.90;;;;;;4980359;28;20552;-60
2021/08/29 09:19:51;;;;;;;;;;;18.70;94.60;;;;;;4995309;28;19921;-61
2021/08/29 09:22:26;;;;;;;;;;;18.70;94.40;;;;;;4995564;28;19976;-61
2021/08/29 09:25:13;;;;;;;;;;;18.70;94.30;;;;;;5012226;28;19921;-60
2021/08/29 09:27:54;;;;;;;;;;;18.60;94.30;;;;;;4994884;28;19924;-60
2021/08/29 09:30:39;;;;;;;;;;;18.70;94.40;;;;;;4980463;28;19921;-61
2021/08/29 09:33:05;;;;;;;;;;;18.70;94.50;;;;;;5011993;28;19926;-61
2021/08/29 09:35:32;;;;;;;;;;;18.80;94.00;;;;;;5012472;28;19920;-60
2021/08/29 09:38:17;;;;;;;;;;;18.70;93.80;;;;;;5011802;28;19923;-60
2021/08/29 09:41:04;;;;;;;;;;;18.70;93.90;;;;;;4994366;28;20008;-60
2021/08/29 09:43:49;;;;;;;;;;;18.70;93.90;;;;;;4996659;28;19928;-60
2021/08/29 09:46:15;;;;;;;;;;;18.70;93.90;;;;;;4994474;28;19917;-60
2021/08/29 09:49:44;;;;;;;;;;;18.60;93.80;;;;;;5011258;28;19929;-61
2021/08/29 09:52:27;;;;;;;;;;;18.50;93.60;;;;;;4994335;28;19918;-60
2021/08/29 09:55:11;;;;;;;;;;;18.50;93.60;;;;;;4994506;28;20292;-59
2021/08/29 09:57:57;;;;;;;;;;;18.40;93.40;;;;;;4976389;28;19924;-60
2021/08/29 10:00:31;;;;;;;;;;;18.30;93.30;;;;;;4994299;28;19928;-59
2021/08/29 10:03:00;;;;;;;;;;;18.20;93.70;;;;;;4993765;28;20394;-60
2021/08/29 10:05:28;;;;;;;;;;;18.20;93.50;;;;;;4993880;28;20374;-60
2021/08/29 10:08:09;;;;;;;;;;;18.20;93.50;;;;;;4993833;28;19925;-60
2021/08/29 10:10:50;;;;;;;;;;;18.20;93.60;;;;;;4992986;28;19926;-61
2021/08/29 10:13:20;;;;;;;;;;;18.30;93.60;;;;;;4993818;28;19969;-60
2021/08/29 10:16:05;;;;;;;;;;;18.10;93.50;;;;;;4993475;28;19944;-61
2021/08/29 10:18:52;;;;;;;;;;;18.00;93.50;;;;;;5010701;28;19924;-60
2021/08/29 10:21:36;;;;;;;;;;;18.00;93.80;;;;;;4996793;28;19975;-61
2021/08/29 10:24:05;;;;;;;;;;;18.10;93.80;;;;;;4993307;28;20286;-61
2021/08/29 10:26:31;;;;;;;;;;;18.20;93.90;;;;;;4993622;28;19917;-61
2021/08/29 10:29:06;;;;;;;;;;;18.40;94.40;;;;;;5015074;28;20004;-61
2021/08/29 10:32:06;;;;;;;;;;;18.70;94.30;;;;;;5019869;28;19926;-59
2021/08/29 10:34:35;;;;;;;;;;;18.70;93.50;;;;;;5003273;28;20293;-59
2021/08/29 10:37:01;;;;;;;;;;;18.60;93.10;;;;;;5018817;28;19924;-59
2021/08/29 10:39:59;;;;;;;;;;;18.50;93.50;;;;;;4996924;28;19927;-59
2021/08/29 10:42:58;;;;;;;;;;;18.50;93.50;;;;;;4997060;28;19945;-59
2021/08/29 10:45:24;;;;;;;;;;;18.80;94.30;;;;;;5019770;28;19922;-58
2021/08/29 10:47:56;;;;;;;;;;;19.10;93.90;;;;;;5019434;28;19931;-59
2021/08/29 10:50:52;;;;;;;;;;;19.10;93.00;;;;;;5008221;28;19987;-59
2021/08/29 10:53:46;;;;;;;;;;;19.00;92.90;;;;;;5001617;28;19925;-59
2021/08/29 10:56:15;;;;;;;;;;;18.90;93.00;;;;;;5000665;28;20439;-59
2021/08/29 10:58:47;;;;;;;;;;;18.90;92.70;;;;;;5003563;28;19932;-58
2021/08/29 11:01:39;;;;;;;;;;;18.70;92.40;;;;;;5002417;28;19922;-59
2021/08/29 11:04:26;;;;;;;;;;;18.60;92.50;;;;;;4987505;28;19933;-59
2021/08/29 11:07:06;;;;;;;;;;;18.60;92.80;;;;;;5004204;28;19921;-58
2021/08/29 11:09:31;;;;;;;;;;;18.70;93.20;;;;;;5004678;28;19971;-59
2021/08/29 11:11:57;;;;;;;;;;;18.80;93.10;;;;;;5003397;28;19918;-59
2021/08/29 11:14:44;;;;;;;;;;;19.20;93.90;;;;;;5018902;28;20404;-59
2021/08/29 11:17:09;;;;;;;;;;;19.90;94.20;;;;;;5002985;28;19917;-59
2021/08/29 11:20:10;;;;;;;;;;;20.70;94.60;;;;;;5019444;28;19933;-59
2021/08/29 11:23:31;;;;;;;;;;;21.10;92.70;;;;;;5002965;28;20008;-59
2021/08/29 11:26:28;;;;;;;;;;;20.90;90.80;;;;;;5006984;28;19928;-59
2021/08/29 11:29:42;;;;;;;;;;;20.40;90.60;;;;;;5020733;28;20507;-60
2021/08/29 11:32:29;;;;;;;;;;;20.10;90.50;;;;;;4991837;28;20002;-60
2021/08/29 11:35:03;;;;;;;;;;;19.70;90.50;;;;;;5003770;28;19921;-60
2021/08/29 11:37:29;;;;;;;;;;;19.50;90.80;;;;;;5001007;28;19929;-60
2021/08/29 11:40:13;;;;;;;;;;;19.50;91.30;;;;;;5005606;28;19967;-61
2021/08/29 11:42:40;;;;;;;;;;;19.70;92.00;;;;;;4991247;28;19921;-61
2021/08/29 11:45:10;;;;;;;;;;;20.00;91.90;;;;;;4998092;28;19921;-60
2021/08/29 11:47:40;;;;;;;;;;;20.20;91.80;;;;;;5005954;28;19952;-60
2021/08/29 11:50:12;;;;;;;;;;;20.30;91.10;;;;;;5005340;28;19963;-61
2021/08/29 11:53:07;;;;;;;;;;;20.30;90.80;;;;;;5017592;28;20361;-60
2021/08/29 11:55:32;;;;;;;;;;;20.20;90.30;;;;;;5021652;28;19941;-60
2021/08/29 11:57:58;;;;;;;;;;;20.10;90.30;;;;;;5005541;28;19956;-60
2021/08/29 12:00:27;;;;;;;;;;;20.00;90.40;;;;;;4991079;28;19922;-60
2021/08/29 12:03:29;;;;;;;;;;;19.80;90.00;;;;;;5007732;28;20462;-60
2021/08/29 12:06:16;;;;;;;;;;;19.60;90.00;;;;;;4997436;28;20353;-60
2021/08/29 12:09:25;;;;;;;;;;;19.40;90.10;;;;;;4951577;28;20005;-60
2021/08/29 12:12:21;;;;;;;;;;;19.10;90.20;;;;;;4919137;29;19926;-60
2021/08/29 12:15:25;;;;;;;;;;;18.90;90.30;;;;;;5018995;28;19956;-61
2021/08/29 12:18:24;;;;;;;;;;;18.80;90.50;;;;;;5021311;28;20372;-62
2021/08/29 12:20:51;;;;;;;;;;;18.70;90.70;;;;;;5003968;28;19933;-62
2021/08/29 12:23:45;;;;;;;;;;;18.70;90.80;;;;;;5019773;28;20009;-60
2021/08/29 12:26:11;;;;;;;;;;;18.60;91.50;;;;;;5001297;28;19921;-61
2021/08/29 12:28:41;;;;;;;;;;;18.80;91.50;;;;;;4993563;28;19936;-60
2021/08/29 12:31:06;;;;;;;;;;;18.90;91.70;;;;;;5021787;28;19921;-60
2021/08/29 12:33:32;;;;;;;;;;;18.90;91.20;;;;;;5005146;28;20373;-60
2021/08/29 12:35:58;;;;;;;;;;;18.90;90.90;;;;;;4986410;28;19917;-61
2021/08/29 12:38:29;;;;;;;;;;;18.80;90.70;;;;;;5003609;28;19924;-60
2021/08/29 12:40:58;;;;;;;;;;;18.60;90.80;;;;;;5004574;28;19917;-61
2021/08/29 12:43:24;;;;;;;;;;;18.50;90.90;;;;;;5003326;28;19921;-60
2021/08/29 12:45:57;;;;;;;;;;;18.40;91.10;;;;;;5003229;28;20393;-61
2021/08/29 12:48:22;;;;;;;;;;;18.40;91.20;;;;;;5021680;28;19921;-60
2021/08/29 12:50:52;;;;;;;;;;;18.30;91.20;;;;;;5017216;28;19922;-60
2021/08/29 12:53:19;;;;;;;;;;;18.20;91.20;;;;;;4993934;28;20362;-61
2021/08/29 12:55:48;;;;;;;;;;;18.10;91.30;;;;;;5026052;28;19921;-60
2021/08/29 12:58:17;;;;;;;;;;;18.10;91.50;;;;;;5022208;28;19921;-60
2021/08/29 13:00:47;;;;;;;;;;;18.10;91.50;;;;;;5000353;28;20064;-60
2021/08/29 13:03:13;;;;;;;;;;;18.00;91.50;;;;;;5000444;28;19922;-61
2021/08/29 13:05:40;;;;;;;;;;;17.90;91.50;;;;;;5018107;28;19918;-60
2021/08/29 13:08:07;;;;;;;;;;;17.80;91.60;;;;;;5004245;28;19940;-60
2021/08/29 13:10:33;;;;;;;;;;;17.80;91.80;;;;;;4998165;28;19929;-60
2021/08/29 13:13:09;;;;;;;;;;;17.80;92.00;;;;;;5011151;28;20009;-60
2021/08/29 13:15:36;;;;;;;;;;;17.90;92.10;;;;;;5012357;28;19917;-61
2021/08/29 13:18:01;;;;;;;;;;;17.90;92.20;;;;;;5010785;28;20007;-61
2021/08/29 13:20:53;;;;;;;;;;;17.90;92.10;;;;;;5011719;28;20080;-60
2021/08/29 13:23:23;;;;;;;;;;;17.90;92.10;;;;;;5007821;28;19917;-61
2021/08/29 13:25:50;;;;;;;;;;;17.90;92.00;;;;;;5028853;28;19918;-61
2021/08/29 13:28:15;;;;;;;;;;;17.90;92.10;;;;;;5004348;28;19940;-61
2021/08/29 13:30:41;;;;;;;;;;;17.90;92.30;;;;;;5015859;28;20621;-61
2021/08/29 13:33:19;;;;;;;;;;;17.90;92.40;;;;;;5024651;28;20586;-61
2021/08/29 13:35:45;;;;;;;;;;;17.90;92.40;;;;;;4994754;28;20377;-60
2021/08/29 13:38:12;;;;;;;;;;;17.90;92.30;;;;;;5011694;28;20039;-60
2021/08/29 13:40:37;;;;;;;;;;;17.80;92.40;;;;;;5011311;28;19918;-60
2021/08/29 13:43:05;;;;;;;;;;;17.90;92.50;;;;;;5012209;28;19922;-60
2021/08/29 13:45:32;;;;;;;;;;;17.80;92.40;;;;;;5015090;28;19976;-60
2021/08/29 13:47:59;;;;;;;;;;;17.90;92.50;;;;;;5010368;28;19925;-60
2021/08/29 13:50:25;;;;;;;;;;;17.90;92.60;;;;;;5028671;28;19928;-60
2021/08/29 13:53:04;;;;;;;;;;;18.00;92.90;;;;;;5031939;28;19959;-60
2021/08/29 13:55:30;;;;;;;;;;;18.10;92.90;;;;;;5031421;28;19918;-60
2021/08/29 13:57:56;;;;;;;;;;;18.20;92.80;;;;;;5031155;28;19921;-61
2021/08/29 14:00:21;;;;;;;;;;;18.30;92.80;;;;;;5013561;28;20388;-60
2021/08/29 14:02:47;;;;;;;;;;;18.40;92.80;;;;;;5014307;28;19918;-60
2021/08/29 14:05:14;;;;;;;;;;;18.40;92.30;;;;;;5014162;28;19921;-60
2021/08/29 14:07:40;;;;;;;;;;;18.30;92.30;;;;;;5030824;28;19923;-60
2021/08/29 14:10:05;;;;;;;;;;;18.20;92.40;;;;;;5025366;28;20003;-60
2021/08/29 14:12:31;;;;;;;;;;;18.20;92.50;;;;;;5014116;28;19967;-60
2021/08/29 14:14:56;;;;;;;;;;;18.20;92.50;;;;;;5031080;28;19917;-60
2021/08/29 14:17:22;;;;;;;;;;;18.10;92.50;;;;;;5031327;28;19917;-60
2021/08/29 14:19:48;;;;;;;;;;;18.10;92.40;;;;;;5030643;28;19924;-61
2021/08/29 14:22:13;;;;;;;;;;;18.00;92.40;;;;;;5013667;28;19917;-60
2021/08/29 14:24:39;;;;;;;;;;;18.00;92.40;;;;;;5031405;28;20007;-60
2021/08/29 14:27:06;;;;;;;;;;;18.00;92.60;;;;;;5012844;28;19924;-60
2021/08/29 14:29:31;;;;;;;;;;;18.00;92.70;;;;;;5027110;28;20297;-61
2021/08/29 14:31:57;;;;;;;;;;;18.00;92.70;;;;;;5011125;28;20413;-61
2021/08/29 14:34:23;;;;;;;;;;;17.90;92.60;;;;;;5011630;28;19979;-60
2021/08/29 14:36:49;;;;;;;;;;;18.00;92.60;;;;;;5011262;28;20349;-60
2021/08/29 14:39:14;;;;;;;;;;;17.90;92.40;;;;;;4993008;28;20052;-63
2021/08/29 14:41:40;;;;;;;;;;;17.80;92.50;;;;;;5023555;28;19924;-60
2021/08/29 14:44:05;;;;;;;;;;;17.80;92.70;;;;;;5031209;28;19925;-62
2021/08/29 14:46:31;;;;;;;;;;;17.80;92.60;;;;;;5012602;28;20008;-62
2021/08/29 14:48:56;;;;;;;;;;;17.70;92.60;;;;;;5011453;28;20048;-60
2021/08/29 14:51:22;;;;;;;;;;;17.70;92.70;;;;;;4995995;28;19983;-62